sensor_id;sensor_type;location;lat;lon;timestamp;temperature;humidity
9219;DHT22;4644;48.858;9.184;2023-03-24T00:00:21;13.40;99.90
9219;DHT22;4644;48.858;9.184;2023-03-24T00:02:49;13.30;99.90
9219;DHT22;4644;48.858;9.184;2023-03-24T00:05:19;13.20;99.90
9219;DHT22;4644;48.858;9.184;2023-03-24T00:07:46;13.20;99.90
9219;DHT22;4644;48.858;9.184;2023-03-24T00:10:15;13.10;99.90
9219;DHT22;4644;48.858;9.184;2023-03-24T00:12:45;13.20;99.90
9219;DHT22;4644;48.858;9.184;2023-03-24T00:15:18;13.10;99.90
9219;DHT22;4644;48.858;9.184;2023-03-24T00:17:45;13.20;99.90
9219;DHT22;4644;48.858;9.184;2023-03-24T00:20:16;13.20;99.90
9219;DHT22;4644;48.858;9.184;2023-03-24T00:22:46;13.20;99.90
9219;DHT22;4644;48.858;9.184;2023-03-24T00:25:16;13.10;99.90
9219;DHT22;4644;48.858;9.184;2023-03-24T00:27:45;13.10;99.90
9219;DHT22;4644;48.858;9.184;2023-03-24T00:30:15;13.20;99.90
9219;DHT22;4644;48.858;9.184;2023-03-24T00:32:43;13.10;99.90
9219;DHT22;4644;48.858;9.184;2023-03-24T00:35:12;13.20;99.90
9219;DHT22;4644;48.858;9.184;2023-03-24T00:37:41;13.20;99.90
9219;DHT22;4644;48.858;9.184;2023-03-24T00:40:11;13.20;99.90
9219;DHT22;4644;48.858;9.184;2023-03-24T00:42:40;13.20;99.90
9219;DHT22;4644;48.858;9.184;2023-03-24T00:45:13;13.10;99.90
9219;DHT22;4644;48.858;9.184;2023-03-24T00:47:41;13.10;99.90
9219;DHT22;4644;48.858;9.184;2023-03-24T00:50:12;13.10;99.90
9219;DHT22;4644;48.858;9.184;2023-03-24T00:52:40;13.20;99.90
9219;DHT22;4644;48.858;9.184;2023-03-24T00:55:09;13.30;99.90
9219;DHT22;4644;48.858;9.184;2023-03-24T00:57:38;13.30;99.90
9219;DHT22;4644;48.858;9.184;2023-03-24T01:00:08;13.40;99.90
9219;DHT22;4644;48.858;9.184;2023-03-24T01:02:40;13.40;99.90
9219;DHT22;4644;48.858;9.184;2023-03-24T01:05:08;13.40;99.90
9219;DHT22;4644;48.858;9.184;2023-03-24T01:07:35;13.50;99.90
9219;DHT22;4644;48.858;9.184;2023-03-24T01:10:06;13.50;99.90
9219;DHT22;4644;48.858;9.184;2023-03-24T01:12:35;13.50;99.90
9219;DHT22;4644;48.858;9.184;2023-03-24T01:15:04;13.60;99.90
9219;DHT22;4644;48.858;9.184;2023-03-24T01:17:33;13.60;99.90
9219;DHT22;4644;48.858;9.184;2023-03-24T01:20:01;13.70;99.90
9219;DHT22;4644;48.858;9.184;2023-03-24T01:22:33;13.70;99.90
9219;DHT22;4644;48.858;9.184;2023-03-24T01:25:03;13.60;99.90
9219;DHT22;4644;48.858;9.184;2023-03-24T01:27:30;13.70;99.90
9219;DHT22;4644;48.858;9.184;2023-03-24T01:29:58;13.70;99.90
9219;DHT22;4644;48.858;9.184;2023-03-24T01:32:27;13.70;99.90
9219;DHT22;4644;48.858;9.184;2023-03-24T01:34:54;13.70;99.90
9219;DHT22;4644;48.858;9.184;2023-03-24T01:37:23;13.70;99.90
9219;DHT22;4644;48.858;9.184;2023-03-24T01:39:50;13.70;99.90
9219;DHT22;4644;48.858;9.184;2023-03-24T01:42:19;13.80;99.90
9219;DHT22;4644;48.858;9.184;2023-03-24T01:44:48;13.80;99.90
9219;DHT22;4644;48.858;9.184;2023-03-24T01:47:15;13.70;99.90
9219;DHT22;4644;48.858;9.184;2023-03-24T01:49:46;13.80;99.90
9219;DHT22;4644;48.858;9.184;2023-03-24T01:52:19;13.70;99.90
9219;DHT22;4644;48.858;9.184;2023-03-24T01:54:51;13.60;99.90
9219;DHT22;4644;48.858;9.184;2023-03-24T01:57:21;13.50;99.90
9219;DHT22;4644;48.858;9.184;2023-03-24T01:59:52;13.50;99.90
9219;DHT22;4644;48.858;9.184;2023-03-24T02:02:19;13.40;99.90
9219;DHT22;4644;48.858;9.184;2023-03-24T02:04:50;13.40;99.90
9219;DHT22;4644;48.858;9.184;2023-03-24T02:07:24;13.40;99.90
9219;DHT22;4644;48.858;9.184;2023-03-24T02:09:57;13.40;99.90
9219;DHT22;4644;48.858;9.184;2023-03-24T02:12:24;13.50;99.90
9219;DHT22;4644;48.858;9.184;2023-03-24T02:14:52;13.50;99.90
9219;DHT22;4644;48.858;9.184;2023-03-24T02:17:40;13.50;99.90
9219;DHT22;4644;48.858;9.184;2023-03-24T02:20:25;13.50;99.90
9219;DHT22;4644;48.858;9.184;2023-03-24T02:29:44;13.50;99.90
9219;DHT22;4644;48.858;9.184;2023-03-24T02:32:47;13.60;99.90
9219;DHT22;4644;48.858;9.184;2023-03-24T02:35:35;13.60;99.90
9219;DHT22;4644;48.858;9.184;2023-03-24T02:38:18;13.60;99.90
9219;DHT22;4644;48.858;9.184;2023-03-24T02:41:00;13.60;99.90
9219;DHT22;4644;48.858;9.184;2023-03-24T02:43:40;13.70;99.90
9219;DHT22;4644;48.858;9.184;2023-03-24T02:46:14;13.60;99.90
9219;DHT22;4644;48.858;9.184;2023-03-24T02:49:09;13.70;99.90
9219;DHT22;4644;48.858;9.184;2023-03-24T02:51:48;13.70;99.90
9219;DHT22;4644;48.858;9.184;2023-03-24T02:54:22;13.70;99.90
9219;DHT22;4644;48.858;9.184;2023-03-24T02:56:54;13.70;99.90
9219;DHT22;4644;48.858;9.184;2023-03-24T02:59:27;13.70;99.90
9219;DHT22;4644;48.858;9.184;2023-03-24T03:02:02;13.80;99.90
9219;DHT22;4644;48.858;9.184;2023-03-24T03:04:33;13.90;99.90
9219;DHT22;4644;48.858;9.184;2023-03-24T03:07:05;14.00;99.90
9219;DHT22;4644;48.858;9.184;2023-03-24T03:09:38;13.90;99.90
9219;DHT22;4644;48.858;9.184;2023-03-24T03:12:10;14.10;99.90
9219;DHT22;4644;48.858;9.184;2023-03-24T03:14:40;14.10;99.90
9219;DHT22;4644;48.858;9.184;2023-03-24T03:17:11;14.10;99.90
9219;DHT22;4644;48.858;9.184;2023-03-24T03:19:42;14.20;99.90
9219;DHT22;4644;48.858;9.184;2023-03-24T03:22:14;14.20;99.90
9219;DHT22;4644;48.858;9.184;2023-03-24T03:24:44;14.10;99.90
9219;DHT22;4644;48.858;9.184;2023-03-24T03:27:19;14.10;99.90
9219;DHT22;4644;48.858;9.184;2023-03-24T03:29:49;14.10;99.90
9219;DHT22;4644;48.858;9.184;2023-03-24T03:32:21;14.10;99.90
9219;DHT22;4644;48.858;9.184;2023-03-24T03:34:55;14.10;99.90
9219;DHT22;4644;48.858;9.184;2023-03-24T03:37:26;14.10;99.90
9219;DHT22;4644;48.858;9.184;2023-03-24T03:39:58;14.20;99.90
9219;DHT22;4644;48.858;9.184;2023-03-24T03:42:31;14.20;99.90
9219;DHT22;4644;48.858;9.184;2023-03-24T03:44:58;14.20;99.90
9219;DHT22;4644;48.858;9.184;2023-03-24T03:47:25;14.30;99.90
9219;DHT22;4644;48.858;9.184;2023-03-24T03:49:52;14.40;99.90
9219;DHT22;4644;48.858;9.184;2023-03-24T03:52:20;14.40;99.90
9219;DHT22;4644;48.858;9.184;2023-03-24T03:54:47;14.40;99.90
9219;DHT22;4644;48.858;9.184;2023-03-24T03:57:16;14.30;99.90
9219;DHT22;4644;48.858;9.184;2023-03-24T03:59:46;14.30;99.90
9219;DHT22;4644;48.858;9.184;2023-03-24T04:02:26;14.30;99.90
9219;DHT22;4644;48.858;9.184;2023-03-24T04:05:08;14.30;99.90
9219;DHT22;4644;48.858;9.184;2023-03-24T04:10:44;14.30;99.90
9219;DHT22;4644;48.858;9.184;2023-03-24T04:13:18;14.30;99.90
9219;DHT22;4644;48.858;9.184;2023-03-24T04:15:53;14.40;99.80
9219;DHT22;4644;48.858;9.184;2023-03-24T04:18:39;14.40;99.00
9219;DHT22;4644;48.858;9.184;2023-03-24T04:21:21;14.50;99.30
9219;DHT22;4644;48.858;9.184;2023-03-24T04:24:05;14.50;98.90
9219;DHT22;4644;48.858;9.184;2023-03-24T04:26:44;14.60;98.60
9219;DHT22;4644;48.858;9.184;2023-03-24T04:29:17;14.70;98.50
9219;DHT22;4644;48.858;9.184;2023-03-24T04:31:52;14.70;98.30
9219;DHT22;4644;48.858;9.184;2023-03-24T04:34:22;14.70;98.20
9219;DHT22;4644;48.858;9.184;2023-03-24T04:36:56;14.80;98.10
9219;DHT22;4644;48.858;9.184;2023-03-24T04:39:30;14.70;98.50
9219;DHT22;4644;48.858;9.184;2023-03-24T04:42:01;14.80;98.40
9219;DHT22;4644;48.858;9.184;2023-03-24T04:44:30;14.80;98.10
9219;DHT22;4644;48.858;9.184;2023-03-24T04:47:01;14.80;98.70
9219;DHT22;4644;48.858;9.184;2023-03-24T04:49:28;14.80;98.20
9219;DHT22;4644;48.858;9.184;2023-03-24T04:51:57;14.80;98.10
9219;DHT22;4644;48.858;9.184;2023-03-24T04:54:24;14.80;98.10
9219;DHT22;4644;48.858;9.184;2023-03-24T04:56:54;14.90;98.20
9219;DHT22;4644;48.858;9.184;2023-03-24T04:59:21;14.90;98.20
9219;DHT22;4644;48.858;9.184;2023-03-24T05:01:49;15.00;98.30
9219;DHT22;4644;48.858;9.184;2023-03-24T05:04:18;14.90;98.40
9219;DHT22;4644;48.858;9.184;2023-03-24T05:06:45;15.00;98.60
9219;DHT22;4644;48.858;9.184;2023-03-24T05:09:14;15.00;98.80
9219;DHT22;4644;48.858;9.184;2023-03-24T05:11:42;15.10;98.90
9219;DHT22;4644;48.858;9.184;2023-03-24T05:14:09;15.10;98.90
9219;DHT22;4644;48.858;9.184;2023-03-24T05:16:36;15.20;99.00
9219;DHT22;4644;48.858;9.184;2023-03-24T05:19:04;15.20;99.30
9219;DHT22;4644;48.858;9.184;2023-03-24T05:21:33;15.20;99.60
9219;DHT22;4644;48.858;9.184;2023-03-24T05:24:00;15.10;99.90
9219;DHT22;4644;48.858;9.184;2023-03-24T05:26:27;15.00;99.90
9219;DHT22;4644;48.858;9.184;2023-03-24T05:28:55;14.80;99.90
9219;DHT22;4644;48.858;9.184;2023-03-24T05:31:22;14.60;99.90
9219;DHT22;4644;48.858;9.184;2023-03-24T05:33:49;14.30;99.90
9219;DHT22;4644;48.858;9.184;2023-03-24T05:36:16;14.10;99.90
9219;DHT22;4644;48.858;9.184;2023-03-24T05:38:45;13.90;99.90
9219;DHT22;4644;48.858;9.184;2023-03-24T05:41:11;13.70;99.90
9219;DHT22;4644;48.858;9.184;2023-03-24T05:43:38;13.50;99.90
9219;DHT22;4644;48.858;9.184;2023-03-24T05:46:06;13.30;99.90
9219;DHT22;4644;48.858;9.184;2023-03-24T05:48:33;13.20;99.90
9219;DHT22;4644;48.858;9.184;2023-03-24T05:51:00;13.20;99.90
9219;DHT22;4644;48.858;9.184;2023-03-24T05:53:27;13.10;99.90
9219;DHT22;4644;48.858;9.184;2023-03-24T05:55:55;13.10;99.90
9219;DHT22;4644;48.858;9.184;2023-03-24T05:58:23;13.00;99.90
9219;DHT22;4644;48.858;9.184;2023-03-24T06:00:50;13.00;99.90
9219;DHT22;4644;48.858;9.184;2023-03-24T06:03:19;12.90;99.90
9219;DHT22;4644;48.858;9.184;2023-03-24T06:05:46;12.90;99.90
9219;DHT22;4644;48.858;9.184;2023-03-24T06:08:14;12.90;99.90
9219;DHT22;4644;48.858;9.184;2023-03-24T06:10:41;12.90;99.90
9219;DHT22;4644;48.858;9.184;2023-03-24T06:13:10;12.90;99.90
9219;DHT22;4644;48.858;9.184;2023-03-24T06:15:37;12.90;99.90
9219;DHT22;4644;48.858;9.184;2023-03-24T06:18:07;12.80;99.90
9219;DHT22;4644;48.858;9.184;2023-03-24T06:20:34;12.80;99.90
9219;DHT22;4644;48.858;9.184;2023-03-24T06:23:01;12.90;99.90
9219;DHT22;4644;48.858;9.184;2023-03-24T06:25:28;12.80;99.90
9219;DHT22;4644;48.858;9.184;2023-03-24T06:27:55;12.80;99.90
9219;DHT22;4644;48.858;9.184;2023-03-24T06:30:31;12.70;99.90
9219;DHT22;4644;48.858;9.184;2023-03-24T06:32:58;12.60;99.90
9219;DHT22;4644;48.858;9.184;2023-03-24T06:35:25;12.60;99.90
9219;DHT22;4644;48.858;9.184;2023-03-24T06:37:52;12.60;99.90
9219;DHT22;4644;48.858;9.184;2023-03-24T06:40:19;12.70;99.90
9219;DHT22;4644;48.858;9.184;2023-03-24T06:42:47;12.70;99.90
9219;DHT22;4644;48.858;9.184;2023-03-24T06:45:15;12.80;99.90
9219;DHT22;4644;48.858;9.184;2023-03-24T06:47:43;12.90;99.90
9219;DHT22;4644;48.858;9.184;2023-03-24T06:50:11;12.90;99.90
9219;DHT22;4644;48.858;9.184;2023-03-24T06:52:38;12.90;99.90
9219;DHT22;4644;48.858;9.184;2023-03-24T06:55:06;12.90;99.90
9219;DHT22;4644;48.858;9.184;2023-03-24T06:57:34;12.90;99.90
9219;DHT22;4644;48.858;9.184;2023-03-24T07:00:01;12.90;99.90
9219;DHT22;4644;48.858;9.184;2023-03-24T07:02:33;13.00;99.90
9219;DHT22;4644;48.858;9.184;2023-03-24T07:05:04;13.00;99.90
9219;DHT22;4644;48.858;9.184;2023-03-24T07:07:33;13.00;99.90
9219;DHT22;4644;48.858;9.184;2023-03-24T07:10:02;13.00;99.90
9219;DHT22;4644;48.858;9.184;2023-03-24T07:12:29;13.00;99.90
9219;DHT22;4644;48.858;9.184;2023-03-24T07:14:57;13.10;99.90
9219;DHT22;4644;48.858;9.184;2023-03-24T07:17:24;13.00;99.90
9219;DHT22;4644;48.858;9.184;2023-03-24T07:19:51;13.00;99.90
9219;DHT22;4644;48.858;9.184;2023-03-24T07:22:19;12.90;99.90
9219;DHT22;4644;48.858;9.184;2023-03-24T07:24:46;12.90;99.90
9219;DHT22;4644;48.858;9.184;2023-03-24T07:27:13;12.90;99.90
9219;DHT22;4644;48.858;9.184;2023-03-24T07:29:40;12.80;99.90
9219;DHT22;4644;48.858;9.184;2023-03-24T07:32:07;12.60;99.90
9219;DHT22;4644;48.858;9.184;2023-03-24T07:34:35;12.60;99.90
9219;DHT22;4644;48.858;9.184;2023-03-24T07:37:03;12.50;99.90
9219;DHT22;4644;48.858;9.184;2023-03-24T07:39:32;12.40;99.90
9219;DHT22;4644;48.858;9.184;2023-03-24T07:41:59;12.40;99.90
9219;DHT22;4644;48.858;9.184;2023-03-24T07:44:26;12.40;99.90
9219;DHT22;4644;48.858;9.184;2023-03-24T07:46:53;12.30;99.90
9219;DHT22;4644;48.858;9.184;2023-03-24T07:49:20;12.30;99.90
9219;DHT22;4644;48.858;9.184;2023-03-24T07:51:47;12.30;99.90
9219;DHT22;4644;48.858;9.184;2023-03-24T07:54:14;12.20;99.90
9219;DHT22;4644;48.858;9.184;2023-03-24T07:56:42;12.20;99.90
9219;DHT22;4644;48.858;9.184;2023-03-24T07:59:09;12.10;99.90
9219;DHT22;4644;48.858;9.184;2023-03-24T08:01:37;12.10;99.90
9219;DHT22;4644;48.858;9.184;2023-03-24T08:04:06;12.00;99.90
9219;DHT22;4644;48.858;9.184;2023-03-24T08:06:33;12.00;99.90
9219;DHT22;4644;48.858;9.184;2023-03-24T08:09:00;12.10;99.90
9219;DHT22;4644;48.858;9.184;2023-03-24T08:11:27;12.10;99.90
9219;DHT22;4644;48.858;9.184;2023-03-24T08:13:56;12.10;99.90
9219;DHT22;4644;48.858;9.184;2023-03-24T08:16:23;12.00;99.90
9219;DHT22;4644;48.858;9.184;2023-03-24T08:18:50;12.00;99.90
9219;DHT22;4644;48.858;9.184;2023-03-24T08:21:17;12.00;99.90
9219;DHT22;4644;48.858;9.184;2023-03-24T08:23:44;12.00;99.90
9219;DHT22;4644;48.858;9.184;2023-03-24T08:26:11;12.10;99.90
9219;DHT22;4644;48.858;9.184;2023-03-24T08:28:38;12.10;99.90
9219;DHT22;4644;48.858;9.184;2023-03-24T08:31:07;12.00;99.90
9219;DHT22;4644;48.858;9.184;2023-03-24T08:33:35;12.10;99.90
9219;DHT22;4644;48.858;9.184;2023-03-24T08:36:02;12.10;99.90
9219;DHT22;4644;48.858;9.184;2023-03-24T08:38:29;12.10;99.90
9219;DHT22;4644;48.858;9.184;2023-03-24T08:40:58;12.10;99.90
9219;DHT22;4644;48.858;9.184;2023-03-24T08:43:32;12.10;99.90
9219;DHT22;4644;48.858;9.184;2023-03-24T08:46:00;12.20;99.90
9219;DHT22;4644;48.858;9.184;2023-03-24T08:48:29;12.20;99.90
9219;DHT22;4644;48.858;9.184;2023-03-24T08:50:57;12.30;99.90
9219;DHT22;4644;48.858;9.184;2023-03-24T08:53:24;12.40;99.90
9219;DHT22;4644;48.858;9.184;2023-03-24T08:55:51;12.40;99.90
9219;DHT22;4644;48.858;9.184;2023-03-24T08:58:19;12.50;99.90
9219;DHT22;4644;48.858;9.184;2023-03-24T09:00:48;12.50;99.90
9219;DHT22;4644;48.858;9.184;2023-03-24T09:03:17;12.60;99.90
9219;DHT22;4644;48.858;9.184;2023-03-24T09:05:48;12.60;99.90
9219;DHT22;4644;48.858;9.184;2023-03-24T09:08:17;12.70;99.90
9219;DHT22;4644;48.858;9.184;2023-03-24T09:10:44;12.70;99.90
9219;DHT22;4644;48.858;9.184;2023-03-24T09:13:12;12.70;99.90
9219;DHT22;4644;48.858;9.184;2023-03-24T09:15:39;12.80;99.90
9219;DHT22;4644;48.858;9.184;2023-03-24T09:18:06;12.80;99.90
9219;DHT22;4644;48.858;9.184;2023-03-24T09:20:34;12.90;99.90
9219;DHT22;4644;48.858;9.184;2023-03-24T09:23:02;12.90;99.90
9219;DHT22;4644;48.858;9.184;2023-03-24T09:25:30;12.90;99.90
9219;DHT22;4644;48.858;9.184;2023-03-24T09:27:57;12.90;99.90
9219;DHT22;4644;48.858;9.184;2023-03-24T09:30:24;12.80;99.90
9219;DHT22;4644;48.858;9.184;2023-03-24T09:32:51;12.80;99.90
9219;DHT22;4644;48.858;9.184;2023-03-24T09:35:18;12.90;99.90
9219;DHT22;4644;48.858;9.184;2023-03-24T09:37:45;13.00;99.90
9219;DHT22;4644;48.858;9.184;2023-03-24T09:40:19;13.10;99.90
9219;DHT22;4644;48.858;9.184;2023-03-24T09:42:51;13.20;99.90
9219;DHT22;4644;48.858;9.184;2023-03-24T09:45:21;13.40;99.90
9219;DHT22;4644;48.858;9.184;2023-03-24T09:47:52;13.50;99.90
9219;DHT22;4644;48.858;9.184;2023-03-24T09:50:23;13.60;99.90
9219;DHT22;4644;48.858;9.184;2023-03-24T09:52:53;13.70;99.90
9219;DHT22;4644;48.858;9.184;2023-03-24T09:55:25;13.80;99.90
9219;DHT22;4644;48.858;9.184;2023-03-24T09:57:55;13.90;99.90
9219;DHT22;4644;48.858;9.184;2023-03-24T10:00:25;14.10;99.90
9219;DHT22;4644;48.858;9.184;2023-03-24T10:02:57;14.30;99.90
9219;DHT22;4644;48.858;9.184;2023-03-24T10:05:31;14.50;99.90
9219;DHT22;4644;48.858;9.184;2023-03-24T10:08:08;14.70;99.90
9219;DHT22;4644;48.858;9.184;2023-03-24T10:10:42;14.90;99.90
9219;DHT22;4644;48.858;9.184;2023-03-24T10:13:20;15.10;99.90
9219;DHT22;4644;48.858;9.184;2023-03-24T10:16:00;15.40;99.90
9219;DHT22;4644;48.858;9.184;2023-03-24T10:18:34;15.50;99.90
9219;DHT22;4644;48.858;9.184;2023-03-24T10:21:08;15.60;99.90
9219;DHT22;4644;48.858;9.184;2023-03-24T10:23:44;15.60;99.90
9219;DHT22;4644;48.858;9.184;2023-03-24T10:26:28;15.40;99.90
9219;DHT22;4644;48.858;9.184;2023-03-24T10:29:08;15.50;99.90
9219;DHT22;4644;48.858;9.184;2023-03-24T10:31:37;15.40;99.90
9219;DHT22;4644;48.858;9.184;2023-03-24T10:34:07;15.50;99.90
9219;DHT22;4644;48.858;9.184;2023-03-24T10:36:35;15.60;99.90
9219;DHT22;4644;48.858;9.184;2023-03-24T10:39:03;15.60;99.90
9219;DHT22;4644;48.858;9.184;2023-03-24T10:41:32;15.60;99.90
9219;DHT22;4644;48.858;9.184;2023-03-24T10:44:01;15.70;99.90
9219;DHT22;4644;48.858;9.184;2023-03-24T10:46:29;15.70;99.90
9219;DHT22;4644;48.858;9.184;2023-03-24T10:49:13;15.70;99.90
9219;DHT22;4644;48.858;9.184;2023-03-24T10:51:44;15.80;99.90
9219;DHT22;4644;48.858;9.184;2023-03-24T10:54:15;16.00;99.90
9219;DHT22;4644;48.858;9.184;2023-03-24T10:56:46;16.10;99.90
9219;DHT22;4644;48.858;9.184;2023-03-24T10:59:20;16.20;99.90
9219;DHT22;4644;48.858;9.184;2023-03-24T11:01:54;16.20;99.90
9219;DHT22;4644;48.858;9.184;2023-03-24T11:04:21;16.30;99.90
9219;DHT22;4644;48.858;9.184;2023-03-24T11:07:02;16.30;99.90
9219;DHT22;4644;48.858;9.184;2023-03-24T11:09:38;16.30;99.90
9219;DHT22;4644;48.858;9.184;2023-03-24T11:12:24;16.30;99.90
9219;DHT22;4644;48.858;9.184;2023-03-24T11:14:51;16.30;99.90
9219;DHT22;4644;48.858;9.184;2023-03-24T11:17:26;16.40;99.90
9219;DHT22;4644;48.858;9.184;2023-03-24T11:19:57;16.60;99.90
9219;DHT22;4644;48.858;9.184;2023-03-24T11:22:24;16.70;99.90
9219;DHT22;4644;48.858;9.184;2023-03-24T11:24:54;16.70;99.90
9219;DHT22;4644;48.858;9.184;2023-03-24T11:27:24;16.70;99.90
9219;DHT22;4644;48.858;9.184;2023-03-24T11:29:53;16.70;99.90
9219;DHT22;4644;48.858;9.184;2023-03-24T11:32:23;16.80;99.90
9219;DHT22;4644;48.858;9.184;2023-03-24T11:34:59;16.90;99.90
9219;DHT22;4644;48.858;9.184;2023-03-24T11:37:28;17.00;99.90
9219;DHT22;4644;48.858;9.184;2023-03-24T11:40:25;17.10;99.90
9219;DHT22;4644;48.858;9.184;2023-03-24T11:42:57;17.30;99.90
9219;DHT22;4644;48.858;9.184;2023-03-24T11:45:27;17.10;99.90
9219;DHT22;4644;48.858;9.184;2023-03-24T11:47:57;17.00;99.90
9219;DHT22;4644;48.858;9.184;2023-03-24T11:50:27;16.80;99.90
9219;DHT22;4644;48.858;9.184;2023-03-24T11:53:01;16.70;99.90
9219;DHT22;4644;48.858;9.184;2023-03-24T11:55:35;16.50;99.90
9219;DHT22;4644;48.858;9.184;2023-03-24T11:58:11;16.20;99.90
9219;DHT22;4644;48.858;9.184;2023-03-24T12:00:44;16.00;99.90
9219;DHT22;4644;48.858;9.184;2023-03-24T12:03:47;15.70;99.90
9219;DHT22;4644;48.858;9.184;2023-03-24T12:06:27;15.40;99.90
9219;DHT22;4644;48.858;9.184;2023-03-24T12:09:06;15.20;99.90
9219;DHT22;4644;48.858;9.184;2023-03-24T12:11:50;15.10;99.90
9219;DHT22;4644;48.858;9.184;2023-03-24T12:14:26;15.00;99.90
9219;DHT22;4644;48.858;9.184;2023-03-24T12:17:00;15.00;99.90
9219;DHT22;4644;48.858;9.184;2023-03-24T12:19:52;15.10;99.90
9219;DHT22;4644;48.858;9.184;2023-03-24T12:22:34;15.20;99.90
9219;DHT22;4644;48.858;9.184;2023-03-24T12:25:37;15.40;99.90
9219;DHT22;4644;48.858;9.184;2023-03-24T12:28:15;15.60;99.90
9219;DHT22;4644;48.858;9.184;2023-03-24T12:30:53;15.60;99.90
9219;DHT22;4644;48.858;9.184;2023-03-24T12:33:32;15.70;99.90
9219;DHT22;4644;48.858;9.184;2023-03-24T12:39:07;15.60;99.90
9219;DHT22;4644;48.858;9.184;2023-03-24T12:42:05;15.70;99.90
9219;DHT22;4644;48.858;9.184;2023-03-24T12:47:58;15.50;99.90
9219;DHT22;4644;48.858;9.184;2023-03-24T12:50:37;15.50;99.90
9219;DHT22;4644;48.858;9.184;2023-03-24T12:53:17;15.40;99.90
9219;DHT22;4644;48.858;9.184;2023-03-24T12:55:50;15.40;99.90
9219;DHT22;4644;48.858;9.184;2023-03-24T12:58:22;15.50;99.90
9219;DHT22;4644;48.858;9.184;2023-03-24T13:00:59;15.50;99.90
9219;DHT22;4644;48.858;9.184;2023-03-24T13:03:34;15.60;99.90
9219;DHT22;4644;48.858;9.184;2023-03-24T13:06:11;15.60;99.90
9219;DHT22;4644;48.858;9.184;2023-03-24T13:08:41;15.70;99.90
9219;DHT22;4644;48.858;9.184;2023-03-24T13:11:14;15.70;99.90
9219;DHT22;4644;48.858;9.184;2023-03-24T13:13:44;15.80;99.90
9219;DHT22;4644;48.858;9.184;2023-03-24T13:16:15;15.70;99.90
9219;DHT22;4644;48.858;9.184;2023-03-24T13:18:49;15.70;99.90
9219;DHT22;4644;48.858;9.184;2023-03-24T13:21:18;15.70;99.90
9219;DHT22;4644;48.858;9.184;2023-03-24T13:23:49;15.70;99.90
9219;DHT22;4644;48.858;9.184;2023-03-24T13:26:29;15.60;99.90
9219;DHT22;4644;48.858;9.184;2023-03-24T13:29:15;14.90;99.90
9219;DHT22;4644;48.858;9.184;2023-03-24T13:31:51;14.40;99.90
9219;DHT22;4644;48.858;9.184;2023-03-24T13:34:26;13.90;99.90
9219;DHT22;4644;48.858;9.184;2023-03-24T13:36:56;13.60;99.90
9219;DHT22;4644;48.858;9.184;2023-03-24T13:39:25;13.30;99.90
9219;DHT22;4644;48.858;9.184;2023-03-24T13:41:56;13.20;99.90
9219;DHT22;4644;48.858;9.184;2023-03-24T13:44:24;13.00;99.90
9219;DHT22;4644;48.858;9.184;2023-03-24T13:47:18;13.00;99.90
9219;DHT22;4644;48.858;9.184;2023-03-24T13:49:58;12.90;99.90
9219;DHT22;4644;48.858;9.184;2023-03-24T13:52:30;12.80;99.90
9219;DHT22;4644;48.858;9.184;2023-03-24T13:55:00;12.70;99.90
9219;DHT22;4644;48.858;9.184;2023-03-24T13:57:29;12.60;99.90
9219;DHT22;4644;48.858;9.184;2023-03-24T14:00:03;12.50;99.90
9219;DHT22;4644;48.858;9.184;2023-03-24T14:02:44;12.50;99.90
9219;DHT22;4644;48.858;9.184;2023-03-24T14:05:38;12.50;99.90
9219;DHT22;4644;48.858;9.184;2023-03-24T14:08:11;12.40;99.90
9219;DHT22;4644;48.858;9.184;2023-03-24T14:10:42;12.40;99.90
9219;DHT22;4644;48.858;9.184;2023-03-24T14:13:21;12.30;99.90
9219;DHT22;4644;48.858;9.184;2023-03-24T14:15:50;12.10;99.90
9219;DHT22;4644;48.858;9.184;2023-03-24T14:18:38;12.00;99.90
9219;DHT22;4644;48.858;9.184;2023-03-24T14:21:07;11.80;99.90
9219;DHT22;4644;48.858;9.184;2023-03-24T14:23:36;11.60;99.90
9219;DHT22;4644;48.858;9.184;2023-03-24T14:26:07;11.40;99.90
9219;DHT22;4644;48.858;9.184;2023-03-24T14:28:43;11.20;99.90
9219;DHT22;4644;48.858;9.184;2023-03-24T14:31:23;11.10;99.90
9219;DHT22;4644;48.858;9.184;2023-03-24T14:34:00;10.90;99.90
9219;DHT22;4644;48.858;9.184;2023-03-24T14:36:30;10.90;99.90
9219;DHT22;4644;48.858;9.184;2023-03-24T14:39:11;10.80;99.90
9219;DHT22;4644;48.858;9.184;2023-03-24T14:41:42;10.80;99.90
9219;DHT22;4644;48.858;9.184;2023-03-24T14:44:53;10.70;99.90
9219;DHT22;4644;48.858;9.184;2023-03-24T14:47:21;10.70;99.90
9219;DHT22;4644;48.858;9.184;2023-03-24T14:49:50;10.60;99.90
9219;DHT22;4644;48.858;9.184;2023-03-24T14:52:20;10.60;99.90
9219;DHT22;4644;48.858;9.184;2023-03-24T14:54:51;10.60;99.90
9219;DHT22;4644;48.858;9.184;2023-03-24T14:57:22;10.70;99.90
9219;DHT22;4644;48.858;9.184;2023-03-24T14:59:57;10.60;99.90
9219;DHT22;4644;48.858;9.184;2023-03-24T15:02:31;10.60;99.90
9219;DHT22;4644;48.858;9.184;2023-03-24T15:05:27;10.50;99.90
9219;DHT22;4644;48.858;9.184;2023-03-24T15:08:07;10.50;99.90
9219;DHT22;4644;48.858;9.184;2023-03-24T15:10:38;10.50;99.90
9219;DHT22;4644;48.858;9.184;2023-03-24T15:13:17;10.50;99.90
9219;DHT22;4644;48.858;9.184;2023-03-24T15:15:53;10.40;99.90
9219;DHT22;4644;48.858;9.184;2023-03-24T15:18:20;10.40;99.90
9219;DHT22;4644;48.858;9.184;2023-03-24T15:20:48;10.40;99.90
9219;DHT22;4644;48.858;9.184;2023-03-24T15:23:18;10.40;99.90
9219;DHT22;4644;48.858;9.184;2023-03-24T15:25:45;10.40;99.90
9219;DHT22;4644;48.858;9.184;2023-03-24T15:28:18;10.40;99.90
9219;DHT22;4644;48.858;9.184;2023-03-24T15:30:47;10.40;99.90
9219;DHT22;4644;48.858;9.184;2023-03-24T15:33:15;10.40;99.90
9219;DHT22;4644;48.858;9.184;2023-03-24T15:35:44;10.50;99.90
9219;DHT22;4644;48.858;9.184;2023-03-24T15:38:19;10.60;99.90
9219;DHT22;4644;48.858;9.184;2023-03-24T15:40:55;10.60;99.90
9219;DHT22;4644;48.858;9.184;2023-03-24T15:43:24;10.70;99.90
9219;DHT22;4644;48.858;9.184;2023-03-24T15:45:52;10.70;99.90
9219;DHT22;4644;48.858;9.184;2023-03-24T15:48:23;10.80;99.90
9219;DHT22;4644;48.858;9.184;2023-03-24T15:50:56;10.80;99.90
9219;DHT22;4644;48.858;9.184;2023-03-24T15:53:26;10.80;99.90
9219;DHT22;4644;48.858;9.184;2023-03-24T15:59:14;10.90;99.90
9219;DHT22;4644;48.858;9.184;2023-03-24T16:01:42;11.00;99.90
9219;DHT22;4644;48.858;9.184;2023-03-24T16:04:13;11.10;99.90
9219;DHT22;4644;48.858;9.184;2023-03-24T16:06:44;11.10;99.90
9219;DHT22;4644;48.858;9.184;2023-03-24T16:09:15;11.30;99.90
9219;DHT22;4644;48.858;9.184;2023-03-24T16:11:47;11.30;99.90
9219;DHT22;4644;48.858;9.184;2023-03-24T16:14:20;11.30;99.90
9219;DHT22;4644;48.858;9.184;2023-03-24T16:16:47;11.40;99.90
9219;DHT22;4644;48.858;9.184;2023-03-24T16:19:16;11.50;99.90
9219;DHT22;4644;48.858;9.184;2023-03-24T16:21:43;11.60;99.90
9219;DHT22;4644;48.858;9.184;2023-03-24T16:24:10;11.60;99.90
9219;DHT22;4644;48.858;9.184;2023-03-24T16:26:37;11.60;99.90
9219;DHT22;4644;48.858;9.184;2023-03-24T16:29:14;11.60;99.90
9219;DHT22;4644;48.858;9.184;2023-03-24T16:31:41;11.60;99.90
9219;DHT22;4644;48.858;9.184;2023-03-24T16:34:08;11.70;99.90
9219;DHT22;4644;48.858;9.184;2023-03-24T16:36:37;11.50;99.90
9219;DHT22;4644;48.858;9.184;2023-03-24T16:39:10;11.50;99.90
9219;DHT22;4644;48.858;9.184;2023-03-24T16:41:40;11.50;99.90
9219;DHT22;4644;48.858;9.184;2023-03-24T16:44:07;11.50;99.90
9219;DHT22;4644;48.858;9.184;2023-03-24T16:46:34;11.50;99.90
9219;DHT22;4644;48.858;9.184;2023-03-24T16:49:03;11.50;99.90